createdAt,value
2019-03-25T00:01:20.636Z,14.20
2019-03-25T00:03:49.356Z,14.10
2019-03-25T00:06:18.387Z,14.20
2019-03-25T00:08:47.283Z,14.20
2019-03-25T00:11:15.906Z,14.30
2019-03-25T00:13:44.606Z,14.20
2019-03-25T00:16:13.356Z,14.30
2019-03-25T00:18:42.071Z,14.20
2019-03-25T00:21:10.652Z,14.00
2019-03-25T00:23:39.423Z,14.10
2019-03-25T00:26:08.027Z,14.10
2019-03-25T00:28:36.811Z,14.10
2019-03-25T00:31:05.471Z,14.10
2019-03-25T00:33:34.127Z,14.00
2019-03-25T00:36:02.857Z,14.10
2019-03-25T00:38:31.536Z,14.20
2019-03-25T00:41:00.228Z,14.30
2019-03-25T00:43:28.938Z,14.10
2019-03-25T00:45:57.596Z,14.20
2019-03-25T00:48:26.092Z,14.10
2019-03-25T00:50:56.228Z,14.10
2019-03-25T00:53:24.873Z,14.10
2019-03-25T00:55:53.488Z,14.10
2019-03-25T00:58:22.164Z,14.30
2019-03-25T01:00:50.914Z,14.00
2019-03-25T01:03:19.649Z,14.10
2019-03-25T01:05:48.340Z,14.10
2019-03-25T01:08:17.072Z,14.30
2019-03-25T01:10:45.796Z,14.30
2019-03-25T01:13:14.507Z,14.30
2019-03-25T01:15:43.351Z,14.40
2019-03-25T01:18:16.953Z,14.50
2019-03-25T01:20:42.698Z,14.50
2019-03-25T01:23:30.870Z,14.50
2019-03-25T01:25:59.319Z,14.20
2019-03-25T01:28:28.198Z,14.00
2019-03-25T01:30:57.051Z,14.00
2019-03-25T01:33:25.793Z,14.10
2019-03-25T01:35:54.559Z,14.00
2019-03-25T01:38:23.317Z,14.00
2019-03-25T01:40:52.034Z,14.20
2019-03-25T01:43:20.573Z,14.20
2019-03-25T01:45:49.319Z,14.10
2019-03-25T01:48:18.117Z,13.70
2019-03-25T01:50:46.989Z,13.70
2019-03-25T01:53:16.596Z,13.70
2019-03-25T01:55:45.392Z,13.50
2019-03-25T01:58:14.077Z,13.60
2019-03-25T02:00:42.929Z,13.80
2019-03-25T02:03:11.591Z,13.40
2019-03-25T02:05:40.259Z,13.20
2019-03-25T02:08:08.896Z,13.20
2019-03-25T02:10:37.688Z,13.20
2019-03-25T02:13:06.388Z,13.00
2019-03-25T02:15:35.608Z,13.10
2019-03-25T02:18:04.199Z,13.40
2019-03-25T02:20:32.854Z,13.60
2019-03-25T02:23:01.947Z,13.50
2019-03-25T02:25:30.848Z,13.50
2019-03-25T02:27:59.633Z,13.30
2019-03-25T02:30:28.545Z,13.00
2019-03-25T02:32:57.221Z,13.00
2019-03-25T02:35:26.097Z,13.10
2019-03-25T02:37:54.979Z,13.50
2019-03-25T02:40:23.696Z,13.60
2019-03-25T02:42:52.464Z,13.40
2019-03-25T02:45:21.192Z,13.50
2019-03-25T02:47:50.024Z,13.70
2019-03-25T02:50:18.713Z,13.60
2019-03-25T02:52:47.404Z,13.50
2019-03-25T02:55:17.030Z,13.60
2019-03-25T02:57:45.700Z,13.80
2019-03-25T03:00:18.399Z,13.80
2019-03-25T03:02:47.254Z,14.00
2019-03-25T03:05:16.059Z,13.90
2019-03-25T03:07:44.912Z,13.70
2019-03-25T03:10:13.817Z,13.70
2019-03-25T03:12:42.617Z,13.40
2019-03-25T03:15:11.569Z,13.30
2019-03-25T03:17:40.208Z,13.30
2019-03-25T03:20:09.238Z,13.40
2019-03-25T03:22:38.015Z,13.30
2019-03-25T03:25:07.053Z,13.30
2019-03-25T03:27:35.856Z,13.30
2019-03-25T03:30:04.719Z,13.40
2019-03-25T03:32:33.634Z,13.10
2019-03-25T03:35:02.362Z,13.30
2019-03-25T03:37:31.169Z,13.40
2019-03-25T03:39:59.884Z,13.40
2019-03-25T03:42:28.606Z,13.50
2019-03-25T03:44:57.421Z,13.70
2019-03-25T03:47:26.257Z,13.70
2019-03-25T03:49:55.051Z,13.90
2019-03-25T03:52:23.875Z,14.00
2019-03-25T03:54:52.850Z,13.80
2019-03-25T03:57:23.512Z,13.90
2019-03-25T03:59:52.305Z,13.90
2019-03-25T04:02:21.148Z,13.90
2019-03-25T04:04:49.850Z,13.80
2019-03-25T04:07:18.778Z,13.60
2019-03-25T04:09:47.401Z,13.70
2019-03-25T04:12:16.178Z,13.50
2019-03-25T04:14:45.229Z,13.40
2019-03-25T04:17:13.913Z,13.50
2019-03-25T04:19:42.649Z,13.70
2019-03-25T04:22:11.259Z,13.10
2019-03-25T04:24:40.064Z,13.30
2019-03-25T04:27:08.725Z,13.20
2019-03-25T04:29:37.450Z,13.10
2019-03-25T04:32:06.406Z,13.00
2019-03-25T04:34:35.245Z,12.90
2019-03-25T04:37:04.131Z,13.30
2019-03-25T04:39:32.876Z,13.30
2019-03-25T04:42:01.644Z,13.30
2019-03-25T04:44:31.506Z,13.50
2019-03-25T04:47:00.248Z,13.50
2019-03-25T04:49:28.912Z,13.60
2019-03-25T04:51:58.154Z,13.50
2019-03-25T04:54:26.888Z,13.40
2019-03-25T04:56:55.584Z,13.50
2019-03-25T04:59:24.428Z,13.40
2019-03-25T05:01:52.885Z,13.30
2019-03-25T05:04:21.446Z,13.40
2019-03-25T05:06:50.194Z,13.50
2019-03-25T05:09:18.908Z,13.40
2019-03-25T05:11:47.635Z,13.40
2019-03-25T05:14:16.670Z,13.50
2019-03-25T05:16:45.488Z,13.70
2019-03-25T05:19:13.988Z,13.70
2019-03-25T05:21:42.697Z,13.60
2019-03-25T05:24:11.617Z,13.70
2019-03-25T05:26:50.494Z,13.90
2019-03-25T05:29:10.999Z,13.80
2019-03-25T05:31:39.685Z,13.90
2019-03-25T05:34:08.337Z,13.80
2019-03-25T05:36:37.162Z,13.90
2019-03-25T05:39:07.432Z,14.00
2019-03-25T05:41:35.928Z,14.30
2019-03-25T05:44:04.664Z,14.30
2019-03-25T05:46:33.402Z,14.20
2019-03-25T05:49:02.282Z,14.20
2019-03-25T05:51:31.067Z,14.20
2019-03-25T05:53:59.762Z,14.40
2019-03-25T05:56:28.460Z,14.50
2019-03-25T05:58:57.201Z,14.70
2019-03-25T06:01:26.305Z,14.70
2019-03-25T06:03:54.895Z,14.90
2019-03-25T06:06:23.740Z,15.00
2019-03-25T06:08:52.268Z,15.00
2019-03-25T06:11:20.963Z,15.20
2019-03-25T06:13:49.701Z,15.20
2019-03-25T06:16:18.538Z,15.40
2019-03-25T06:18:47.114Z,15.70
2019-03-25T06:21:15.756Z,15.80
2019-03-25T06:23:44.288Z,15.70
2019-03-25T06:26:12.963Z,15.60
2019-03-25T06:28:41.694Z,16.00
2019-03-25T06:31:10.564Z,16.10
2019-03-25T06:33:39.236Z,16.50
2019-03-25T06:36:07.973Z,16.50
2019-03-25T06:38:36.810Z,17.40
2019-03-25T06:41:05.565Z,18.50
2019-03-25T06:43:34.299Z,19.40
2019-03-25T06:46:02.988Z,19.60
2019-03-25T06:48:31.652Z,19.50
2019-03-25T06:51:00.590Z,19.80
2019-03-25T06:53:29.316Z,20.30
2019-03-25T06:55:57.910Z,20.00
2019-03-25T06:58:26.743Z,21.30
2019-03-25T07:00:55.568Z,20.90
2019-03-25T07:03:24.369Z,21.60
2019-03-25T07:05:53.232Z,21.40
2019-03-25T07:08:27.680Z,22.30
2019-03-25T07:10:56.379Z,23.30
2019-03-25T07:13:25.254Z,23.30
2019-03-25T07:15:53.876Z,25.10
2019-03-25T07:18:22.494Z,25.80
2019-03-25T07:20:51.409Z,25.10
2019-03-25T07:23:20.059Z,24.30
2019-03-25T07:25:48.736Z,24.30
2019-03-25T07:28:17.364Z,24.90
2019-03-25T07:30:46.035Z,24.40
2019-03-25T07:33:14.897Z,25.00
2019-03-25T07:35:43.551Z,24.60
2019-03-25T07:38:12.300Z,25.60
2019-03-25T07:40:41.052Z,26.60
2019-03-25T07:43:09.790Z,25.50
2019-03-25T07:45:38.501Z,24.70
2019-03-25T07:48:07.213Z,24.30
2019-03-25T07:50:35.830Z,25.10
2019-03-25T07:53:04.636Z,24.50
2019-03-25T07:55:33.644Z,24.30
2019-03-25T07:58:02.549Z,23.50
2019-03-25T08:00:31.141Z,24.60
2019-03-25T08:03:00.027Z,23.70
2019-03-25T08:05:28.669Z,23.70
2019-03-25T08:07:57.296Z,23.70
2019-03-25T08:10:33.558Z,24.70
2019-03-25T08:13:02.177Z,26.10
2019-03-25T08:15:30.971Z,27.30
2019-03-25T08:17:59.960Z,25.60
2019-03-25T08:20:28.763Z,24.30
2019-03-25T08:22:57.589Z,25.40
2019-03-25T08:25:26.515Z,25.60
2019-03-25T08:27:59.924Z,26.90
2019-03-25T08:30:25.970Z,26.80
2019-03-25T08:32:54.723Z,25.80
2019-03-25T08:35:23.555Z,26.30
2019-03-25T08:37:52.240Z,26.00
2019-03-25T08:40:20.797Z,26.60
2019-03-25T08:42:49.596Z,27.00
2019-03-25T08:45:18.416Z,25.50
2019-03-25T08:47:47.141Z,25.20
2019-03-25T08:50:15.851Z,26.60
2019-03-25T08:52:44.450Z,27.60
2019-03-25T08:55:13.285Z,27.60
2019-03-25T08:57:41.734Z,27.00
2019-03-25T09:00:10.869Z,25.50
2019-03-25T09:02:39.568Z,26.40
2019-03-25T09:05:08.609Z,27.30
2019-03-25T09:07:37.367Z,27.40
2019-03-25T09:10:06.593Z,27.60
2019-03-25T09:12:35.387Z,27.40
2019-03-25T09:15:05.401Z,27.40
2019-03-25T09:17:34.174Z,27.40
2019-03-25T09:20:03.075Z,28.30
2019-03-25T09:22:31.714Z,28.00
2019-03-25T09:25:00.784Z,26.90
2019-03-25T09:27:29.423Z,26.60
2019-03-25T09:29:58.197Z,27.00
2019-03-25T09:32:26.875Z,26.60
2019-03-25T09:34:55.576Z,26.10
2019-03-25T09:37:24.349Z,26.70
2019-03-25T09:39:53.172Z,25.80
2019-03-25T09:42:21.712Z,24.90
2019-03-25T09:44:50.544Z,25.40
2019-03-25T09:47:19.465Z,26.40
2019-03-25T09:49:48.220Z,25.60
2019-03-25T09:52:16.975Z,25.40
2019-03-25T09:54:45.723Z,26.50
2019-03-25T09:57:14.504Z,27.40
2019-03-25T09:59:43.136Z,27.40
2019-03-25T10:02:11.873Z,27.20
2019-03-25T10:04:40.613Z,26.10
2019-03-25T10:07:28.486Z,25.30
2019-03-25T10:09:57.435Z,24.20
2019-03-25T10:12:26.121Z,25.00
2019-03-25T10:14:54.986Z,26.10
2019-03-25T10:17:23.620Z,25.70
2019-03-25T10:19:52.297Z,26.40
2019-03-25T10:22:21.094Z,27.00
2019-03-25T10:24:49.875Z,27.20
2019-03-25T10:27:18.551Z,27.60
2019-03-25T10:29:47.648Z,27.90
2019-03-25T10:32:16.425Z,27.90
2019-03-25T10:34:45.221Z,28.10
2019-03-25T10:37:14.060Z,28.80
2019-03-25T10:39:42.889Z,29.10
2019-03-25T10:42:11.793Z,29.90
2019-03-25T10:44:40.678Z,29.80
2019-03-25T10:47:09.352Z,29.80
2019-03-25T10:49:38.027Z,29.80
2019-03-25T10:52:06.784Z,29.90
2019-03-25T10:54:35.583Z,30.40
2019-03-25T10:57:04.794Z,30.20
2019-03-25T10:59:33.660Z,29.60
2019-03-25T11:02:02.984Z,29.50
2019-03-25T11:04:31.683Z,30.00
2019-03-25T11:07:00.538Z,30.50
2019-03-25T11:09:29.067Z,30.80
2019-03-25T11:11:57.873Z,30.80
2019-03-25T11:14:26.696Z,31.30
2019-03-25T11:16:55.308Z,31.00
2019-03-25T11:19:23.891Z,31.40
2019-03-25T11:21:52.453Z,32.00
2019-03-25T11:24:21.238Z,32.10
2019-03-25T11:26:49.858Z,31.10
2019-03-25T11:29:18.699Z,31.70
2019-03-25T11:31:47.455Z,32.20
2019-03-25T11:34:16.216Z,31.70
2019-03-25T11:36:44.993Z,31.30
2019-03-25T11:39:13.616Z,31.80
2019-03-25T11:41:42.402Z,30.10
2019-03-25T11:44:11.237Z,29.90
2019-03-25T11:46:39.882Z,30.50
2019-03-25T11:49:08.525Z,31.30
2019-03-25T11:51:37.476Z,31.40
2019-03-25T11:54:06.313Z,29.30
2019-03-25T11:56:35.306Z,28.60
2019-03-25T11:59:04.364Z,27.80
2019-03-25T12:01:33.213Z,26.50
2019-03-25T12:04:01.813Z,26.80
2019-03-25T12:06:30.628Z,27.10
2019-03-25T12:08:59.040Z,26.90
2019-03-25T12:11:27.620Z,25.80
2019-03-25T12:13:56.586Z,26.60
2019-03-25T12:16:25.279Z,28.00
2019-03-25T12:18:54.091Z,27.40
2019-03-25T12:21:41.569Z,27.80
2019-03-25T12:24:10.302Z,28.00
2019-03-25T12:26:38.691Z,29.10
2019-03-25T12:29:07.504Z,29.30
2019-03-25T12:31:36.897Z,28.90
2019-03-25T12:34:05.614Z,26.60
2019-03-25T12:36:34.083Z,26.80
2019-03-25T12:39:04.468Z,28.70
2019-03-25T12:41:33.255Z,28.80
2019-03-25T12:44:01.639Z,29.80
2019-03-25T12:46:30.292Z,30.20
2019-03-25T12:48:59.003Z,29.90
2019-03-25T12:51:27.844Z,29.20
2019-03-25T12:53:56.561Z,30.10
2019-03-25T12:56:25.366Z,30.30
2019-03-25T12:58:54.215Z,30.40
2019-03-25T13:01:22.671Z,30.60
2019-03-25T13:03:51.456Z,30.50
2019-03-25T13:06:20.275Z,30.10
2019-03-25T13:08:49.187Z,27.60
2019-03-25T13:11:17.890Z,26.90
2019-03-25T13:13:46.742Z,28.50
2019-03-25T13:16:15.389Z,27.00
2019-03-25T13:18:43.756Z,27.30
2019-03-25T13:21:12.663Z,28.10
2019-03-25T13:23:41.248Z,27.00
2019-03-25T13:26:10.180Z,27.40
2019-03-25T13:28:38.934Z,27.60
2019-03-25T13:31:07.803Z,28.00
2019-03-25T13:33:36.502Z,28.20
2019-03-25T13:36:05.090Z,28.10
2019-03-25T13:38:33.719Z,27.40
2019-03-25T13:41:02.502Z,27.20
2019-03-25T13:43:31.325Z,27.60
2019-03-25T13:46:05.521Z,27.50
2019-03-25T13:48:30.451Z,27.50
2019-03-25T13:50:59.137Z,27.30
2019-03-25T13:53:27.444Z,25.40
2019-03-25T13:55:56.251Z,25.80
2019-03-25T13:58:25.120Z,26.40
2019-03-25T14:00:53.639Z,26.80
2019-03-25T14:03:22.445Z,26.20
2019-03-25T14:05:51.273Z,26.30
2019-03-25T14:08:20.123Z,25.80
2019-03-25T14:10:49.030Z,24.80
2019-03-25T14:13:18.038Z,24.50
2019-03-25T14:15:46.721Z,25.30
2019-03-25T14:18:15.683Z,24.70
2019-03-25T14:20:44.449Z,25.30
2019-03-25T14:23:13.261Z,25.30
2019-03-25T14:25:42.032Z,25.60
2019-03-25T14:28:13.079Z,24.80
2019-03-25T14:30:41.849Z,25.10
2019-03-25T14:33:10.462Z,25.30
2019-03-25T14:35:40.134Z,25.30
2019-03-25T14:38:08.828Z,24.50
2019-03-25T14:40:37.880Z,24.00
2019-03-25T14:43:06.683Z,23.30
2019-03-25T14:45:35.727Z,22.60
2019-03-25T14:48:04.525Z,22.50
2019-03-25T14:50:33.347Z,22.70
2019-03-25T14:53:02.247Z,22.90
2019-03-25T14:55:30.993Z,23.20
2019-03-25T14:57:59.794Z,24.00
2019-03-25T15:00:28.761Z,24.00
2019-03-25T15:02:57.510Z,23.90
2019-03-25T15:05:26.366Z,24.20
2019-03-25T15:07:54.996Z,24.10
2019-03-25T15:10:23.773Z,23.70
2019-03-25T15:12:52.626Z,23.60
2019-03-25T15:15:21.575Z,23.60
2019-03-25T15:17:50.243Z,23.60
2019-03-25T15:20:19.311Z,23.90
2019-03-25T15:22:48.015Z,24.00
2019-03-25T15:25:16.811Z,23.20
2019-03-25T15:27:45.662Z,22.90
2019-03-25T15:30:14.731Z,23.60
2019-03-25T15:32:43.480Z,23.90
2019-03-25T15:35:12.542Z,22.70
2019-03-25T15:37:41.308Z,22.50
2019-03-25T15:40:10.694Z,22.70
2019-03-25T15:42:39.468Z,22.30
2019-03-25T15:45:09.417Z,22.00
2019-03-25T15:47:38.325Z,21.80
2019-03-25T15:50:07.759Z,21.60
2019-03-25T15:52:36.681Z,21.70
2019-03-25T15:55:05.735Z,21.50
2019-03-25T15:57:34.614Z,21.10
2019-03-25T16:00:04.277Z,20.90
2019-03-25T16:02:32.862Z,20.80
2019-03-25T16:05:20.507Z,20.70
2019-03-25T16:07:49.129Z,21.00
2019-03-25T16:10:17.930Z,20.70
2019-03-25T16:12:46.913Z,20.30
2019-03-25T16:15:39.777Z,20.40
2019-03-25T16:18:08.618Z,20.10
2019-03-25T16:20:37.351Z,20.30
2019-03-25T16:23:05.947Z,20.10
2019-03-25T16:25:34.605Z,20.00
2019-03-25T16:28:03.540Z,19.90
2019-03-25T16:30:32.294Z,19.90
2019-03-25T16:33:01.187Z,19.90
2019-03-25T16:35:29.918Z,19.90
2019-03-25T16:37:58.689Z,19.90
2019-03-25T16:40:27.513Z,20.00
2019-03-25T16:42:56.235Z,19.90
2019-03-25T16:45:25.255Z,19.90
2019-03-25T16:47:54.082Z,20.10
2019-03-25T16:50:23.109Z,20.10
2019-03-25T16:52:51.840Z,20.20
2019-03-25T16:55:20.636Z,20.10
2019-03-25T16:57:49.414Z,20.00
2019-03-25T17:00:26.902Z,19.90
2019-03-25T17:02:48.229Z,19.80
2019-03-25T17:05:16.794Z,19.60
2019-03-25T17:07:45.527Z,19.60
2019-03-25T17:10:14.664Z,20.00
2019-03-25T17:12:43.435Z,20.50
2019-03-25T17:15:12.639Z,20.70
2019-03-25T17:17:42.272Z,20.90
2019-03-25T17:20:12.275Z,21.00
2019-03-25T17:22:41.347Z,21.20
2019-03-25T17:25:10.936Z,20.30
2019-03-25T17:27:40.339Z,19.70
2019-03-25T17:30:13.471Z,19.60
2019-03-25T17:32:42.442Z,20.20
2019-03-25T17:35:11.337Z,20.50
2019-03-25T17:37:40.376Z,20.70
2019-03-25T17:40:09.179Z,20.40
2019-03-25T17:42:39.160Z,19.80
2019-03-25T17:45:08.836Z,20.20
2019-03-25T17:47:37.657Z,20.50
2019-03-25T17:50:06.999Z,20.80
2019-03-25T17:52:36.390Z,20.90
2019-03-25T17:55:05.911Z,21.00
2019-03-25T17:57:35.350Z,20.80
2019-03-25T18:00:06.953Z,20.70
2019-03-25T18:02:35.559Z,20.70
2019-03-25T18:05:04.602Z,20.70
2019-03-25T18:07:34.113Z,20.20
2019-03-25T18:10:03.630Z,20.30
2019-03-25T18:12:38.755Z,20.30
2019-03-25T18:15:04.368Z,20.50
2019-03-25T18:17:33.080Z,20.60
2019-03-25T18:20:02.553Z,20.40
2019-03-25T18:22:39.498Z,20.50
2019-03-25T18:25:03.638Z,20.40
2019-03-25T18:27:32.335Z,20.50
2019-03-25T18:30:01.796Z,20.40
2019-03-25T18:32:30.534Z,20.40
2019-03-25T18:34:59.477Z,20.30
2019-03-25T18:37:27.891Z,20.20
2019-03-25T18:39:56.491Z,20.10
2019-03-25T18:42:25.336Z,20.00
2019-03-25T18:44:54.511Z,20.10
2019-03-25T18:47:23.735Z,19.90
2019-03-25T18:49:53.418Z,19.70
2019-03-25T18:52:22.164Z,19.70
2019-03-25T18:54:51.838Z,19.60
2019-03-25T18:57:21.311Z,19.50
2019-03-25T18:59:50.484Z,19.40
2019-03-25T19:02:20.232Z,19.20
2019-03-25T19:04:49.650Z,19.30
2019-03-25T19:07:19.313Z,19.00
2019-03-25T19:09:48.271Z,19.00
2019-03-25T19:12:17.921Z,18.90
2019-03-25T19:14:47.238Z,18.90
2019-03-25T19:17:15.912Z,18.70
2019-03-25T19:19:44.567Z,18.70
2019-03-25T19:22:14.082Z,18.60
2019-03-25T19:24:42.882Z,18.40
2019-03-25T19:27:12.126Z,18.20
2019-03-25T19:29:40.727Z,18.10
2019-03-25T19:32:10.611Z,17.90
2019-03-25T19:34:39.954Z,17.90
2019-03-25T19:37:09.459Z,17.70
2019-03-25T19:39:38.274Z,17.60
2019-03-25T19:42:07.736Z,17.60
2019-03-25T19:44:36.994Z,17.70
2019-03-25T19:47:05.665Z,17.80
2019-03-25T19:49:35.178Z,18.00
2019-03-25T19:52:04.921Z,18.00
2019-03-25T19:54:33.733Z,18.10
2019-03-25T19:57:02.921Z,18.20
2019-03-25T19:59:32.147Z,18.20
2019-03-25T20:02:01.664Z,18.30
2019-03-25T20:04:30.277Z,18.10
2019-03-25T20:06:59.060Z,18.00
2019-03-25T20:09:28.313Z,17.70
2019-03-25T20:11:57.667Z,17.60
2019-03-25T20:14:26.412Z,17.40
2019-03-25T20:16:55.384Z,17.40
2019-03-25T20:19:24.937Z,17.20
2019-03-25T20:21:53.801Z,17.10
2019-03-25T20:24:23.664Z,17.00
2019-03-25T20:26:53.129Z,16.80
2019-03-25T20:29:23.600Z,16.80
2019-03-25T20:31:52.866Z,16.80
2019-03-25T20:34:21.500Z,16.80
2019-03-25T20:36:50.357Z,16.90
2019-03-25T20:39:19.470Z,16.90
2019-03-25T20:41:48.307Z,16.80
2019-03-25T20:44:17.253Z,16.80
2019-03-25T20:46:46.342Z,16.80
2019-03-25T20:49:17.787Z,16.70
2019-03-25T20:51:47.274Z,16.70
2019-03-25T20:54:16.122Z,16.70
2019-03-25T20:56:47.023Z,16.50
2019-03-25T20:59:15.713Z,16.30
2019-03-25T21:01:45.280Z,16.50
2019-03-25T21:04:14.672Z,16.50
2019-03-25T21:06:43.969Z,16.30
2019-03-25T21:09:12.655Z,16.10
2019-03-25T21:11:41.457Z,16.30
2019-03-25T21:14:12.005Z,16.10
2019-03-25T21:16:41.534Z,16.20
2019-03-25T21:19:10.549Z,16.20
2019-03-25T21:21:39.509Z,16.20
2019-03-25T21:24:09.121Z,16.30
2019-03-25T21:26:38.482Z,16.30
2019-03-25T21:29:08.158Z,16.20
2019-03-25T21:31:39.019Z,16.20
2019-03-25T21:34:07.730Z,16.10
2019-03-25T21:36:37.648Z,16.10
2019-03-25T21:39:07.808Z,16.10
2019-03-25T21:41:37.118Z,15.70
2019-03-25T21:44:05.736Z,15.90
2019-03-25T21:46:35.417Z,15.80
2019-03-25T21:49:04.393Z,15.80
2019-03-25T21:51:34.161Z,15.90
2019-03-25T21:54:03.526Z,15.90
2019-03-25T21:56:33.135Z,15.80
2019-03-25T21:59:02.749Z,15.60
2019-03-25T22:01:32.318Z,15.80
2019-03-25T22:04:01.980Z,15.80
2019-03-25T22:06:31.503Z,15.80
2019-03-25T22:09:00.970Z,15.70
2019-03-25T22:11:30.339Z,15.70
2019-03-25T22:13:59.492Z,15.50
2019-03-25T22:16:28.104Z,15.60
2019-03-25T22:18:56.766Z,15.40
2019-03-25T22:21:26.180Z,15.50
2019-03-25T22:23:54.780Z,15.50
2019-03-25T22:26:24.410Z,15.50
2019-03-25T22:28:53.199Z,15.60
2019-03-25T22:31:22.377Z,15.60
2019-03-25T22:33:51.124Z,15.60
2019-03-25T22:36:20.778Z,15.60
2019-03-25T22:38:50.424Z,15.70
2019-03-25T22:41:19.076Z,15.50
2019-03-25T22:43:48.428Z,15.60
2019-03-25T22:46:17.767Z,15.50
2019-03-25T22:48:47.153Z,15.50
2019-03-25T22:51:15.879Z,15.50
2019-03-25T22:53:44.686Z,15.30
2019-03-25T22:56:13.379Z,15.20
2019-03-25T22:58:42.035Z,15.20
2019-03-25T23:01:10.611Z,15.20
2019-03-25T23:03:39.848Z,15.30
2019-03-25T23:06:08.470Z,15.40
2019-03-25T23:08:37.283Z,15.30
2019-03-25T23:11:06.272Z,15.60
2019-03-25T23:13:34.938Z,15.60
2019-03-25T23:16:03.719Z,15.50
2019-03-25T23:18:32.841Z,15.50
2019-03-25T23:21:01.618Z,15.60
2019-03-25T23:23:30.410Z,15.60
2019-03-25T23:25:59.251Z,15.40
2019-03-25T23:28:27.758Z,15.50
2019-03-25T23:30:56.666Z,15.40
2019-03-25T23:33:26.387Z,15.50
2019-03-25T23:35:55.058Z,15.50
2019-03-25T23:38:23.672Z,15.40
2019-03-25T23:40:52.391Z,15.50
2019-03-25T23:43:20.918Z,15.60
2019-03-25T23:45:49.686Z,15.70
2019-03-25T23:48:18.348Z,15.60
2019-03-25T23:50:46.862Z,15.30
2019-03-25T23:53:15.678Z,15.20
2019-03-25T23:55:45.437Z,15.20
2019-03-25T23:58:14.036Z,15.40
